Dutse International Airport

METAR DNKN TAF DNKN
19 °C
°C
-
°C
1h
Alter
00:12:01
LT
23:12
UTC
0 ft

1.000

2.000

3.000

4.000

5.000

VFR
<?= Yii::t('app', 'Wind direction') ?> <?= Yii::t('app', 'of'); ?>
360°
06:50
Sonne auf
37%
Luftfeuchtigkeit
Windscherung
Geschlossen/Schnee
RWY-Sichtweite
RWY Zustand
Vert. Sichtweite
Min. Sichtbarkeit
CAVOK
Trend
Korrektur
Besonderer Bericht
1016 hPa
QNH
METAR DNKN 312200Z 36003KT CAVOK 19/04 Q1016 NOSIG
Klar
3 kt
3 kt
00:00
VFR
7 kt
01:00
VFR
7 kt
02:00
VFR
7 kt
03:00
VFR
7 kt
04:00
VFR
7 kt
05:00
VFR
7 kt
06:00
VFR
7 kt
10 km+
Sichtweite
Keine
Wolkendecke
3 kt
Wind
metar-taf.com/DNDS

Metar-Taf.com

Visueller Decoder

Wir und Dritte verfolgen dein Internetverhalten auf unserer Website mit Cookies. Wenn du fortfährst, gehen wir davon aus, dass du mit unserer Cookie-Richtlinie einverstanden bist.